sensor_id;sensor_type;location;lat;lon;timestamp;temperature;humidity
80577;DHT22;69937;52.420;10.538;2023-10-31T00:04:15;12.00;81.80
80577;DHT22;69937;52.420;10.538;2023-10-31T00:09:16;12.00;81.70
80577;DHT22;69937;52.420;10.538;2023-10-31T00:14:16;12.00;81.80
80577;DHT22;69937;52.420;10.538;2023-10-31T00:19:17;12.00;81.80
80577;DHT22;69937;52.420;10.538;2023-10-31T00:24:17;12.00;82.00
80577;DHT22;69937;52.420;10.538;2023-10-31T00:29:18;12.00;82.30
80577;DHT22;69937;52.420;10.538;2023-10-31T00:34:18;12.00;82.30
80577;DHT22;69937;52.420;10.538;2023-10-31T00:39:19;12.00;82.40
80577;DHT22;69937;52.420;10.538;2023-10-31T00:44:19;12.00;82.60
80577;DHT22;69937;52.420;10.538;2023-10-31T00:49:20;12.00;82.60
80577;DHT22;69937;52.420;10.538;2023-10-31T00:54:20;12.00;82.90
80577;DHT22;69937;52.420;10.538;2023-10-31T00:59:21;12.00;82.90
80577;DHT22;69937;52.420;10.538;2023-10-31T01:04:21;12.00;82.90
80577;DHT22;69937;52.420;10.538;2023-10-31T01:09:22;12.00;83.00
80577;DHT22;69937;52.420;10.538;2023-10-31T01:14:22;12.00;83.10
80577;DHT22;69937;52.420;10.538;2023-10-31T01:19:23;12.00;83.10
80577;DHT22;69937;52.420;10.538;2023-10-31T01:24:24;12.00;83.10
80577;DHT22;69937;52.420;10.538;2023-10-31T01:29:24;12.10;83.10
80577;DHT22;69937;52.420;10.538;2023-10-31T01:34:25;12.10;83.20
80577;DHT22;69937;52.420;10.538;2023-10-31T01:39:26;12.00;83.20
80577;DHT22;69937;52.420;10.538;2023-10-31T01:44:26;12.00;83.30
80577;DHT22;69937;52.420;10.538;2023-10-31T01:49:27;12.00;83.30
80577;DHT22;69937;52.420;10.538;2023-10-31T01:54:27;12.00;83.40
80577;DHT22;69937;52.420;10.538;2023-10-31T01:59:28;12.00;83.30
80577;DHT22;69937;52.420;10.538;2023-10-31T02:04:29;12.00;83.30
80577;DHT22;69937;52.420;10.538;2023-10-31T02:09:30;12.00;83.40
80577;DHT22;69937;52.420;10.538;2023-10-31T02:14:31;12.00;83.40
80577;DHT22;69937;52.420;10.538;2023-10-31T02:19:31;11.90;83.30
80577;DHT22;69937;52.420;10.538;2023-10-31T02:24:32;11.90;83.30
80577;DHT22;69937;52.420;10.538;2023-10-31T02:29:32;11.90;83.30
80577;DHT22;69937;52.420;10.538;2023-10-31T02:34:33;11.90;83.40
80577;DHT22;69937;52.420;10.538;2023-10-31T02:39:35;11.90;83.50
80577;DHT22;69937;52.420;10.538;2023-10-31T02:44:35;11.90;83.40
80577;DHT22;69937;52.420;10.538;2023-10-31T02:49:36;11.90;83.30
80577;DHT22;69937;52.420;10.538;2023-10-31T02:54:36;11.90;83.50
80577;DHT22;69937;52.420;10.538;2023-10-31T02:59:37;11.90;83.30
80577;DHT22;69937;52.420;10.538;2023-10-31T03:04:38;11.90;83.40
80577;DHT22;69937;52.420;10.538;2023-10-31T03:09:38;11.90;83.40
80577;DHT22;69937;52.420;10.538;2023-10-31T03:14:39;11.90;83.40
80577;DHT22;69937;52.420;10.538;2023-10-31T03:19:39;11.90;83.40
80577;DHT22;69937;52.420;10.538;2023-10-31T03:24:40;11.90;83.60
80577;DHT22;69937;52.420;10.538;2023-10-31T03:29:40;11.90;83.60
80577;DHT22;69937;52.420;10.538;2023-10-31T03:34:41;12.00;83.60
80577;DHT22;69937;52.420;10.538;2023-10-31T03:39:42;12.00;83.70
80577;DHT22;69937;52.420;10.538;2023-10-31T03:44:42;12.00;83.70
80577;DHT22;69937;52.420;10.538;2023-10-31T03:49:43;12.00;83.60
80577;DHT22;69937;52.420;10.538;2023-10-31T03:54:43;12.00;83.60
80577;DHT22;69937;52.420;10.538;2023-10-31T03:59:44;12.00;83.70
80577;DHT22;69937;52.420;10.538;2023-10-31T04:04:45;12.00;83.60
80577;DHT22;69937;52.420;10.538;2023-10-31T04:09:45;12.10;83.50
80577;DHT22;69937;52.420;10.538;2023-10-31T04:14:46;12.10;83.40
80577;DHT22;69937;52.420;10.538;2023-10-31T04:19:46;12.10;83.40
80577;DHT22;69937;52.420;10.538;2023-10-31T04:24:47;12.10;83.30
80577;DHT22;69937;52.420;10.538;2023-10-31T04:29:47;12.10;83.40
80577;DHT22;69937;52.420;10.538;2023-10-31T04:34:48;12.10;79.30
80577;DHT22;69937;52.420;10.538;2023-10-31T04:39:48;11.90;77.00
80577;DHT22;69937;52.420;10.538;2023-10-31T04:44:49;11.80;76.40
80577;DHT22;69937;52.420;10.538;2023-10-31T04:49:50;11.70;76.40
80577;DHT22;69937;52.420;10.538;2023-10-31T04:54:50;11.50;75.80
80577;DHT22;69937;52.420;10.538;2023-10-31T04:59:51;11.40;75.50
80577;DHT22;69937;52.420;10.538;2023-10-31T05:04:54;11.30;74.90
80577;DHT22;69937;52.420;10.538;2023-10-31T05:09:55;11.30;75.20
80577;DHT22;69937;52.420;10.538;2023-10-31T05:14:56;11.30;74.40
80577;DHT22;69937;52.420;10.538;2023-10-31T05:19:56;11.20;74.30
80577;DHT22;69937;52.420;10.538;2023-10-31T05:24:57;11.20;74.30
80577;DHT22;69937;52.420;10.538;2023-10-31T05:29:57;11.10;74.80
80577;DHT22;69937;52.420;10.538;2023-10-31T05:34:58;11.10;74.50
80577;DHT22;69937;52.420;10.538;2023-10-31T05:39:59;11.10;74.20
80577;DHT22;69937;52.420;10.538;2023-10-31T05:44:59;11.10;74.10
80577;DHT22;69937;52.420;10.538;2023-10-31T05:50:00;11.10;73.80
80577;DHT22;69937;52.420;10.538;2023-10-31T05:55:00;11.10;74.10
80577;DHT22;69937;52.420;10.538;2023-10-31T06:00:01;11.10;73.00
80577;DHT22;69937;52.420;10.538;2023-10-31T06:05:02;11.00;73.10
80577;DHT22;69937;52.420;10.538;2023-10-31T06:10:02;11.00;71.80
80577;DHT22;69937;52.420;10.538;2023-10-31T06:15:03;11.00;72.40
80577;DHT22;69937;52.420;10.538;2023-10-31T06:20:04;10.90;72.40
80577;DHT22;69937;52.420;10.538;2023-10-31T06:25:06;10.90;73.10
80577;DHT22;69937;52.420;10.538;2023-10-31T06:30:07;10.90;72.90
80577;DHT22;69937;52.420;10.538;2023-10-31T06:35:08;10.90;73.00
80577;DHT22;69937;52.420;10.538;2023-10-31T06:40:09;10.90;72.50
80577;DHT22;69937;52.420;10.538;2023-10-31T06:45:10;10.80;71.40
80577;DHT22;69937;52.420;10.538;2023-10-31T06:50:10;10.90;71.50
80577;DHT22;69937;52.420;10.538;2023-10-31T06:55:11;10.90;71.50
80577;DHT22;69937;52.420;10.538;2023-10-31T07:00:12;10.80;71.40
80577;DHT22;69937;52.420;10.538;2023-10-31T07:05:13;10.80;71.50
80577;DHT22;69937;52.420;10.538;2023-10-31T07:10:14;10.80;71.30
80577;DHT22;69937;52.420;10.538;2023-10-31T07:15:15;10.80;71.50
80577;DHT22;69937;52.420;10.538;2023-10-31T07:20:15;10.80;71.70
80577;DHT22;69937;52.420;10.538;2023-10-31T07:25:16;10.80;71.50
80577;DHT22;69937;52.420;10.538;2023-10-31T07:30:16;10.70;71.80
80577;DHT22;69937;52.420;10.538;2023-10-31T07:35:17;10.70;71.50
80577;DHT22;69937;52.420;10.538;2023-10-31T07:40:20;10.70;71.90
80577;DHT22;69937;52.420;10.538;2023-10-31T07:45:20;10.70;71.70
80577;DHT22;69937;52.420;10.538;2023-10-31T07:50:21;10.70;71.70
80577;DHT22;69937;52.420;10.538;2023-10-31T07:55:21;10.70;72.20
80577;DHT22;69937;52.420;10.538;2023-10-31T08:00:22;10.70;72.30
80577;DHT22;69937;52.420;10.538;2023-10-31T08:05:22;10.70;72.30
80577;DHT22;69937;52.420;10.538;2023-10-31T08:10:23;10.70;72.90
80577;DHT22;69937;52.420;10.538;2023-10-31T08:15:23;10.70;72.50
80577;DHT22;69937;52.420;10.538;2023-10-31T08:20:24;10.80;72.30
80577;DHT22;69937;52.420;10.538;2023-10-31T08:25:25;10.80;72.30
80577;DHT22;69937;52.420;10.538;2023-10-31T08:30:25;10.80;72.50
80577;DHT22;69937;52.420;10.538;2023-10-31T08:35:26;10.80;72.90
80577;DHT22;69937;52.420;10.538;2023-10-31T08:40:26;10.80;73.40
80577;DHT22;69937;52.420;10.538;2023-10-31T08:45:27;10.70;73.50
80577;DHT22;69937;52.420;10.538;2023-10-31T08:50:27;10.70;74.00
80577;DHT22;69937;52.420;10.538;2023-10-31T08:55:28;10.70;74.60
80577;DHT22;69937;52.420;10.538;2023-10-31T09:00:28;10.70;75.20
80577;DHT22;69937;52.420;10.538;2023-10-31T09:05:29;10.70;75.20
80577;DHT22;69937;52.420;10.538;2023-10-31T09:10:29;10.80;75.30
80577;DHT22;69937;52.420;10.538;2023-10-31T09:15:30;11.00;74.40
80577;DHT22;69937;52.420;10.538;2023-10-31T09:20:30;11.00;73.70
80577;DHT22;69937;52.420;10.538;2023-10-31T09:25:31;11.00;73.50
80577;DHT22;69937;52.420;10.538;2023-10-31T09:30:32;11.00;73.50
80577;DHT22;69937;52.420;10.538;2023-10-31T09:35:33;11.20;73.30
80577;DHT22;69937;52.420;10.538;2023-10-31T09:40:36;11.60;71.10
80577;DHT22;69937;52.420;10.538;2023-10-31T09:45:37;11.80;70.30
80577;DHT22;69937;52.420;10.538;2023-10-31T09:50:38;11.90;70.70
80577;DHT22;69937;52.420;10.538;2023-10-31T09:55:38;12.10;68.90
80577;DHT22;69937;52.420;10.538;2023-10-31T10:00:39;12.20;68.90
80577;DHT22;69937;52.420;10.538;2023-10-31T10:05:44;12.00;68.20
80577;DHT22;69937;52.420;10.538;2023-10-31T10:10:44;11.90;68.90
80577;DHT22;69937;52.420;10.538;2023-10-31T10:15:45;11.60;69.80
80577;DHT22;69937;52.420;10.538;2023-10-31T10:21:02;11.30;71.80
80577;DHT22;69937;52.420;10.538;2023-10-31T10:26:03;11.10;72.90
80577;DHT22;69937;52.420;10.538;2023-10-31T10:31:04;10.90;74.90
80577;DHT22;69937;52.420;10.538;2023-10-31T10:36:09;10.80;74.90
80577;DHT22;69937;52.420;10.538;2023-10-31T10:41:12;10.80;75.50
80577;DHT22;69937;52.420;10.538;2023-10-31T10:46:15;10.80;75.00
80577;DHT22;69937;52.420;10.538;2023-10-31T10:51:29;10.80;74.40
80577;DHT22;69937;52.420;10.538;2023-10-31T10:56:42;10.80;74.00
80577;DHT22;69937;52.420;10.538;2023-10-31T11:01:45;10.90;74.00
80577;DHT22;69937;52.420;10.538;2023-10-31T11:06:47;11.00;71.90
80577;DHT22;69937;52.420;10.538;2023-10-31T11:11:48;11.10;71.30
80577;DHT22;69937;52.420;10.538;2023-10-31T11:16:55;11.10;72.70
80577;DHT22;69937;52.420;10.538;2023-10-31T11:22:00;11.00;74.50
80577;DHT22;69937;52.420;10.538;2023-10-31T11:27:03;10.70;75.60
80577;DHT22;69937;52.420;10.538;2023-10-31T11:32:08;10.50;77.20
80577;DHT22;69937;52.420;10.538;2023-10-31T11:37:32;10.60;76.90
80577;DHT22;69937;52.420;10.538;2023-10-31T11:42:36;10.60;76.50
80577;DHT22;69937;52.420;10.538;2023-10-31T11:47:46;10.60;76.90
80577;DHT22;69937;52.420;10.538;2023-10-31T11:58:20;10.60;77.90
80577;DHT22;69937;52.420;10.538;2023-10-31T12:03:21;10.70;76.70
80577;DHT22;69937;52.420;10.538;2023-10-31T12:08:32;10.80;75.70
80577;DHT22;69937;52.420;10.538;2023-10-31T12:13:34;11.00;75.10
80577;DHT22;69937;52.420;10.538;2023-10-31T12:18:35;11.10;74.20
80577;DHT22;69937;52.420;10.538;2023-10-31T12:23:36;11.30;73.70
80577;DHT22;69937;52.420;10.538;2023-10-31T12:28:36;11.50;73.10
80577;DHT22;69937;52.420;10.538;2023-10-31T12:33:38;11.60;72.70
80577;DHT22;69937;52.420;10.538;2023-10-31T12:38:39;11.70;71.60
80577;DHT22;69937;52.420;10.538;2023-10-31T12:43:39;11.70;71.40
80577;DHT22;69937;52.420;10.538;2023-10-31T12:48:40;11.70;71.30
80577;DHT22;69937;52.420;10.538;2023-10-31T12:53:40;11.70;71.80
80577;DHT22;69937;52.420;10.538;2023-10-31T12:58:41;11.60;72.00
80577;DHT22;69937;52.420;10.538;2023-10-31T13:03:50;11.60;72.00
80577;DHT22;69937;52.420;10.538;2023-10-31T13:08:51;11.70;71.30
80577;DHT22;69937;52.420;10.538;2023-10-31T13:13:52;11.70;71.10
80577;DHT22;69937;52.420;10.538;2023-10-31T13:18:54;11.70;71.40
80577;DHT22;69937;52.420;10.538;2023-10-31T13:23:57;11.70;70.40
80577;DHT22;69937;52.420;10.538;2023-10-31T13:28:57;11.70;70.30
80577;DHT22;69937;52.420;10.538;2023-10-31T13:33:58;11.70;70.20
80577;DHT22;69937;52.420;10.538;2023-10-31T13:38:58;11.70;71.20
80577;DHT22;69937;52.420;10.538;2023-10-31T13:43:59;11.70;70.70
80577;DHT22;69937;52.420;10.538;2023-10-31T13:48:59;11.70;71.10
80577;DHT22;69937;52.420;10.538;2023-10-31T13:54:00;11.70;71.00
80577;DHT22;69937;52.420;10.538;2023-10-31T13:59:01;11.70;70.60
80577;DHT22;69937;52.420;10.538;2023-10-31T14:04:01;11.80;71.20
80577;DHT22;69937;52.420;10.538;2023-10-31T14:09:02;11.80;71.20
80577;DHT22;69937;52.420;10.538;2023-10-31T14:14:05;11.90;70.80
80577;DHT22;69937;52.420;10.538;2023-10-31T14:19:11;11.90;70.60
80577;DHT22;69937;52.420;10.538;2023-10-31T14:24:12;11.90;70.50
80577;DHT22;69937;52.420;10.538;2023-10-31T14:29:12;11.90;70.70
80577;DHT22;69937;52.420;10.538;2023-10-31T14:34:13;11.90;70.40
80577;DHT22;69937;52.420;10.538;2023-10-31T14:39:13;11.90;70.50
80577;DHT22;69937;52.420;10.538;2023-10-31T14:44:14;11.80;70.80
80577;DHT22;69937;52.420;10.538;2023-10-31T14:49:15;12.00;70.10
80577;DHT22;69937;52.420;10.538;2023-10-31T14:54:16;12.30;69.50
80577;DHT22;69937;52.420;10.538;2023-10-31T14:59:16;12.40;68.90
80577;DHT22;69937;52.420;10.538;2023-10-31T15:04:17;12.30;69.30
80577;DHT22;69937;52.420;10.538;2023-10-31T15:09:17;12.20;69.50
80577;DHT22;69937;52.420;10.538;2023-10-31T15:14:19;12.10;69.90
80577;DHT22;69937;52.420;10.538;2023-10-31T15:19:20;12.00;70.50
80577;DHT22;69937;52.420;10.538;2023-10-31T15:24:21;12.00;71.00
80577;DHT22;69937;52.420;10.538;2023-10-31T15:29:21;12.00;71.10
80577;DHT22;69937;52.420;10.538;2023-10-31T15:34:22;11.90;71.40
80577;DHT22;69937;52.420;10.538;2023-10-31T15:39:23;11.80;71.90
80577;DHT22;69937;52.420;10.538;2023-10-31T15:44:23;11.70;72.60
80577;DHT22;69937;52.420;10.538;2023-10-31T15:49:24;11.60;73.30
80577;DHT22;69937;52.420;10.538;2023-10-31T15:54:24;11.50;73.70
80577;DHT22;69937;52.420;10.538;2023-10-31T15:59:25;11.50;74.30
80577;DHT22;69937;52.420;10.538;2023-10-31T16:04:26;11.30;75.00
80577;DHT22;69937;52.420;10.538;2023-10-31T16:09:27;11.20;75.40
80577;DHT22;69937;52.420;10.538;2023-10-31T16:14:28;11.10;75.90
80577;DHT22;69937;52.420;10.538;2023-10-31T16:19:29;11.10;76.50
80577;DHT22;69937;52.420;10.538;2023-10-31T16:24:29;11.00;76.70
80577;DHT22;69937;52.420;10.538;2023-10-31T16:29:30;10.90;76.10
80577;DHT22;69937;52.420;10.538;2023-10-31T16:34:31;10.80;76.20
80577;DHT22;69937;52.420;10.538;2023-10-31T16:39:32;10.70;76.60
80577;DHT22;69937;52.420;10.538;2023-10-31T16:44:32;10.70;75.10
80577;DHT22;69937;52.420;10.538;2023-10-31T16:49:34;10.60;74.20
80577;DHT22;69937;52.420;10.538;2023-10-31T16:54:34;10.60;73.60
80577;DHT22;69937;52.420;10.538;2023-10-31T16:59:35;10.50;73.60
80577;DHT22;69937;52.420;10.538;2023-10-31T17:04:35;10.40;73.30
80577;DHT22;69937;52.420;10.538;2023-10-31T17:09:37;10.30;73.80
80577;DHT22;69937;52.420;10.538;2023-10-31T17:14:37;10.30;73.70
80577;DHT22;69937;52.420;10.538;2023-10-31T17:19:38;10.30;73.50
80577;DHT22;69937;52.420;10.538;2023-10-31T17:24:38;10.20;73.90
80577;DHT22;69937;52.420;10.538;2023-10-31T17:29:39;10.20;74.00
80577;DHT22;69937;52.420;10.538;2023-10-31T17:34:39;10.20;74.30
80577;DHT22;69937;52.420;10.538;2023-10-31T17:39:40;10.20;74.10
80577;DHT22;69937;52.420;10.538;2023-10-31T17:44:40;10.20;73.90
80577;DHT22;69937;52.420;10.538;2023-10-31T17:49:41;10.10;74.00
80577;DHT22;69937;52.420;10.538;2023-10-31T17:54:41;10.20;74.20
80577;DHT22;69937;52.420;10.538;2023-10-31T17:59:42;10.10;73.90
80577;DHT22;69937;52.420;10.538;2023-10-31T18:04:43;10.10;74.10
80577;DHT22;69937;52.420;10.538;2023-10-31T18:09:46;10.10;74.10
80577;DHT22;69937;52.420;10.538;2023-10-31T18:14:46;10.20;73.90
80577;DHT22;69937;52.420;10.538;2023-10-31T18:19:47;10.20;73.80
80577;DHT22;69937;52.420;10.538;2023-10-31T18:24:47;10.10;72.50
80577;DHT22;69937;52.420;10.538;2023-10-31T18:29:51;10.10;72.70
80577;DHT22;69937;52.420;10.538;2023-10-31T18:34:52;10.00;72.10
80577;DHT22;69937;52.420;10.538;2023-10-31T18:39:53;10.00;72.50
80577;DHT22;69937;52.420;10.538;2023-10-31T18:44:53;10.00;72.30
80577;DHT22;69937;52.420;10.538;2023-10-31T18:49:54;9.90;72.40
80577;DHT22;69937;52.420;10.538;2023-10-31T18:54:54;10.00;72.40
80577;DHT22;69937;52.420;10.538;2023-10-31T18:59:59;9.90;72.00
80577;DHT22;69937;52.420;10.538;2023-10-31T19:05:04;9.80;72.30
80577;DHT22;69937;52.420;10.538;2023-10-31T19:10:05;9.90;72.00
80577;DHT22;69937;52.420;10.538;2023-10-31T19:15:06;9.80;72.50
80577;DHT22;69937;52.420;10.538;2023-10-31T19:20:07;9.70;73.10
80577;DHT22;69937;52.420;10.538;2023-10-31T19:25:08;9.70;73.40
80577;DHT22;69937;52.420;10.538;2023-10-31T19:30:09;9.70;73.80
80577;DHT22;69937;52.420;10.538;2023-10-31T19:35:09;9.80;74.10
80577;DHT22;69937;52.420;10.538;2023-10-31T19:40:17;9.80;74.50
80577;DHT22;69937;52.420;10.538;2023-10-31T19:45:21;9.70;74.50
80577;DHT22;69937;52.420;10.538;2023-10-31T19:50:21;9.60;74.90
80577;DHT22;69937;52.420;10.538;2023-10-31T19:55:21;9.50;74.70
80577;DHT22;69937;52.420;10.538;2023-10-31T20:00:22;9.50;75.20
80577;DHT22;69937;52.420;10.538;2023-10-31T20:05:25;9.50;75.20
80577;DHT22;69937;52.420;10.538;2023-10-31T20:10:26;9.50;75.30
80577;DHT22;69937;52.420;10.538;2023-10-31T20:15:26;9.50;75.60
80577;DHT22;69937;52.420;10.538;2023-10-31T20:20:27;9.40;75.30
80577;DHT22;69937;52.420;10.538;2023-10-31T20:25:27;9.40;75.10
80577;DHT22;69937;52.420;10.538;2023-10-31T20:30:28;9.40;75.50
80577;DHT22;69937;52.420;10.538;2023-10-31T20:35:29;9.30;76.10
80577;DHT22;69937;52.420;10.538;2023-10-31T20:40:29;9.30;76.40
80577;DHT22;69937;52.420;10.538;2023-10-31T20:45:31;9.20;76.60
80577;DHT22;69937;52.420;10.538;2023-10-31T20:50:32;9.20;76.90
80577;DHT22;69937;52.420;10.538;2023-10-31T20:55:33;9.20;77.30
80577;DHT22;69937;52.420;10.538;2023-10-31T21:00:33;9.20;77.50
80577;DHT22;69937;52.420;10.538;2023-10-31T21:05:35;9.20;77.80
80577;DHT22;69937;52.420;10.538;2023-10-31T21:10:36;9.20;77.90
80577;DHT22;69937;52.420;10.538;2023-10-31T21:15:36;9.00;78.50
80577;DHT22;69937;52.420;10.538;2023-10-31T21:20:37;9.00;78.50
80577;DHT22;69937;52.420;10.538;2023-10-31T21:25:38;9.00;78.80
80577;DHT22;69937;52.420;10.538;2023-10-31T21:30:39;9.00;78.60
80577;DHT22;69937;52.420;10.538;2023-10-31T21:35:39;9.00;78.10
80577;DHT22;69937;52.420;10.538;2023-10-31T21:40:40;8.90;78.40
80577;DHT22;69937;52.420;10.538;2023-10-31T21:45:40;8.90;77.90
80577;DHT22;69937;52.420;10.538;2023-10-31T21:50:41;8.80;78.30
80577;DHT22;69937;52.420;10.538;2023-10-31T21:55:42;8.80;78.30
80577;DHT22;69937;52.420;10.538;2023-10-31T22:00:43;8.70;78.50
80577;DHT22;69937;52.420;10.538;2023-10-31T22:05:44;8.60;78.90
80577;DHT22;69937;52.420;10.538;2023-10-31T22:10:45;8.60;79.30
80577;DHT22;69937;52.420;10.538;2023-10-31T22:15:45;8.50;79.70
80577;DHT22;69937;52.420;10.538;2023-10-31T22:20:46;8.50;80.00
80577;DHT22;69937;52.420;10.538;2023-10-31T22:25:48;8.50;80.40
80577;DHT22;69937;52.420;10.538;2023-10-31T22:30:49;8.50;80.20
80577;DHT22;69937;52.420;10.538;2023-10-31T22:35:50;8.40;80.60
80577;DHT22;69937;52.420;10.538;2023-10-31T22:40:50;8.40;80.50
80577;DHT22;69937;52.420;10.538;2023-10-31T22:45:52;8.30;79.40
80577;DHT22;69937;52.420;10.538;2023-10-31T22:50:53;8.30;79.60
80577;DHT22;69937;52.420;10.538;2023-10-31T22:55:54;8.20;79.10
80577;DHT22;69937;52.420;10.538;2023-10-31T23:00:55;8.20;79.60
80577;DHT22;69937;52.420;10.538;2023-10-31T23:05:56;8.10;79.70
80577;DHT22;69937;52.420;10.538;2023-10-31T23:10:57;8.20;79.80
80577;DHT22;69937;52.420;10.538;2023-10-31T23:15:57;8.10;80.00
80577;DHT22;69937;52.420;10.538;2023-10-31T23:20:58;8.10;80.20
80577;DHT22;69937;52.420;10.538;2023-10-31T23:25:58;8.20;80.50
80577;DHT22;69937;52.420;10.538;2023-10-31T23:30:59;8.10;80.40
80577;DHT22;69937;52.420;10.538;2023-10-31T23:35:59;8.20;80.80
80577;DHT22;69937;52.420;10.538;2023-10-31T23:41:00;8.20;80.90
80577;DHT22;69937;52.420;10.538;2023-10-31T23:46:00;8.20;80.80
80577;DHT22;69937;52.420;10.538;2023-10-31T23:51:01;8.20;80.80
80577;DHT22;69937;52.420;10.538;2023-10-31T23:56:02;8.10;81.00
